sensor_id;sensor_type;location;lat;lon;timestamp;temperature;humidity
41220;DHT22;26951;47.338;9.196;2023-10-09T00:02:26;12.30;52.30
41220;DHT22;26951;47.338;9.196;2023-10-09T00:05:10;12.30;52.90
41220;DHT22;26951;47.338;9.196;2023-10-09T00:08:06;12.30;52.80
41220;DHT22;26951;47.338;9.196;2023-10-09T00:10:53;12.30;52.50
41220;DHT22;26951;47.338;9.196;2023-10-09T00:13:37;12.30;52.30
41220;DHT22;26951;47.338;9.196;2023-10-09T00:16:22;12.30;52.40
41220;DHT22;26951;47.338;9.196;2023-10-09T00:19:19;12.30;53.10
41220;DHT22;26951;47.338;9.196;2023-10-09T00:22:16;12.30;53.10
41220;DHT22;26951;47.338;9.196;2023-10-09T00:25:10;12.30;53.00
41220;DHT22;26951;47.338;9.196;2023-10-09T00:27:54;12.30;53.10
41220;DHT22;26951;47.338;9.196;2023-10-09T00:30:41;12.30;52.60
41220;DHT22;26951;47.338;9.196;2023-10-09T00:33:25;12.30;52.70
41220;DHT22;26951;47.338;9.196;2023-10-09T00:36:11;12.30;52.40
41220;DHT22;26951;47.338;9.196;2023-10-09T00:38:57;12.30;52.40
41220;DHT22;26951;47.338;9.196;2023-10-09T00:41:44;12.30;52.50
41220;DHT22;26951;47.338;9.196;2023-10-09T00:44:29;12.30;52.50
41220;DHT22;26951;47.338;9.196;2023-10-09T00:47:23;12.30;52.80
41220;DHT22;26951;47.338;9.196;2023-10-09T00:50:10;12.30;52.70
41220;DHT22;26951;47.338;9.196;2023-10-09T00:53:05;12.30;53.10
41220;DHT22;26951;47.338;9.196;2023-10-09T00:55:57;12.30;52.50
41220;DHT22;26951;47.338;9.196;2023-10-09T00:58:47;12.20;52.80
41220;DHT22;26951;47.338;9.196;2023-10-09T01:02:16;12.20;52.50
41220;DHT22;26951;47.338;9.196;2023-10-09T01:05:04;12.20;52.90
41220;DHT22;26951;47.338;9.196;2023-10-09T01:07:56;12.20;53.10
41220;DHT22;26951;47.338;9.196;2023-10-09T01:10:46;12.20;53.60
41220;DHT22;26951;47.338;9.196;2023-10-09T01:14:03;12.10;53.30
41220;DHT22;26951;47.338;9.196;2023-10-09T01:16:50;12.10;53.00
41220;DHT22;26951;47.338;9.196;2023-10-09T01:19:38;12.10;53.30
41220;DHT22;26951;47.338;9.196;2023-10-09T01:22:22;12.10;53.50
41220;DHT22;26951;47.338;9.196;2023-10-09T01:25:06;12.00;52.90
41220;DHT22;26951;47.338;9.196;2023-10-09T01:27:51;12.10;53.30
41220;DHT22;26951;47.338;9.196;2023-10-09T01:30:36;12.00;52.90
41220;DHT22;26951;47.338;9.196;2023-10-09T01:33:25;12.00;53.30
41220;DHT22;26951;47.338;9.196;2023-10-09T01:36:11;12.00;52.30
41220;DHT22;26951;47.338;9.196;2023-10-09T01:39:00;12.00;52.80
41220;DHT22;26951;47.338;9.196;2023-10-09T01:41:46;11.90;52.80
41220;DHT22;26951;47.338;9.196;2023-10-09T01:44:30;11.90;52.60
41220;DHT22;26951;47.338;9.196;2023-10-09T01:47:18;11.90;52.60
41220;DHT22;26951;47.338;9.196;2023-10-09T01:50:07;11.90;52.80
41220;DHT22;26951;47.338;9.196;2023-10-09T01:53:11;11.90;53.10
41220;DHT22;26951;47.338;9.196;2023-10-09T01:56:11;11.90;53.00
41220;DHT22;26951;47.338;9.196;2023-10-09T01:59:01;11.90;52.60
41220;DHT22;26951;47.338;9.196;2023-10-09T02:01:49;11.90;52.30
41220;DHT22;26951;47.338;9.196;2023-10-09T02:04:37;12.00;52.10
41220;DHT22;26951;47.338;9.196;2023-10-09T02:07:24;12.00;51.80
41220;DHT22;26951;47.338;9.196;2023-10-09T02:10:14;12.00;52.00
41220;DHT22;26951;47.338;9.196;2023-10-09T02:13:16;12.00;51.70
41220;DHT22;26951;47.338;9.196;2023-10-09T02:16:03;12.00;52.00
41220;DHT22;26951;47.338;9.196;2023-10-09T02:19:10;12.00;51.80
41220;DHT22;26951;47.338;9.196;2023-10-09T02:22:14;12.00;52.10
41220;DHT22;26951;47.338;9.196;2023-10-09T02:24:58;12.00;51.90
41220;DHT22;26951;47.338;9.196;2023-10-09T02:27:43;12.00;52.00
41220;DHT22;26951;47.338;9.196;2023-10-09T02:30:38;12.00;52.20
41220;DHT22;26951;47.338;9.196;2023-10-09T02:33:25;12.00;52.20
41220;DHT22;26951;47.338;9.196;2023-10-09T02:36:12;11.90;52.00
41220;DHT22;26951;47.338;9.196;2023-10-09T02:38:57;11.90;52.30
41220;DHT22;26951;47.338;9.196;2023-10-09T02:41:41;11.90;52.10
41220;DHT22;26951;47.338;9.196;2023-10-09T02:44:33;11.90;52.20
41220;DHT22;26951;47.338;9.196;2023-10-09T02:47:23;11.90;51.80
41220;DHT22;26951;47.338;9.196;2023-10-09T02:50:15;11.80;52.60
41220;DHT22;26951;47.338;9.196;2023-10-09T02:53:06;11.80;51.90
41220;DHT22;26951;47.338;9.196;2023-10-09T02:55:53;11.80;51.70
41220;DHT22;26951;47.338;9.196;2023-10-09T02:58:55;11.80;51.80
41220;DHT22;26951;47.338;9.196;2023-10-09T03:01:50;11.80;52.30
41220;DHT22;26951;47.338;9.196;2023-10-09T03:04:38;11.70;51.90
41220;DHT22;26951;47.338;9.196;2023-10-09T03:07:23;11.70;51.90
41220;DHT22;26951;47.338;9.196;2023-10-09T03:10:07;11.70;51.90
41220;DHT22;26951;47.338;9.196;2023-10-09T03:12:55;11.70;51.70
41220;DHT22;26951;47.338;9.196;2023-10-09T03:15:39;11.60;51.80
41220;DHT22;26951;47.338;9.196;2023-10-09T03:18:25;11.60;51.90
41220;DHT22;26951;47.338;9.196;2023-10-09T03:21:09;11.60;52.30
41220;DHT22;26951;47.338;9.196;2023-10-09T03:23:53;11.60;52.10
41220;DHT22;26951;47.338;9.196;2023-10-09T03:26:39;11.60;51.70
41220;DHT22;26951;47.338;9.196;2023-10-09T03:29:24;11.60;51.50
41220;DHT22;26951;47.338;9.196;2023-10-09T03:32:08;11.60;51.40
41220;DHT22;26951;47.338;9.196;2023-10-09T03:34:53;11.60;51.20
41220;DHT22;26951;47.338;9.196;2023-10-09T03:37:39;11.60;51.10
41220;DHT22;26951;47.338;9.196;2023-10-09T03:40:24;11.60;51.60
41220;DHT22;26951;47.338;9.196;2023-10-09T03:43:10;11.60;51.30
41220;DHT22;26951;47.338;9.196;2023-10-09T03:45:55;11.60;51.10
41220;DHT22;26951;47.338;9.196;2023-10-09T03:48:41;11.60;50.40
41220;DHT22;26951;47.338;9.196;2023-10-09T03:51:28;11.60;50.60
41220;DHT22;26951;47.338;9.196;2023-10-09T03:54:13;11.60;50.70
41220;DHT22;26951;47.338;9.196;2023-10-09T03:56:58;11.60;51.00
41220;DHT22;26951;47.338;9.196;2023-10-09T03:59:42;11.60;51.00
41220;DHT22;26951;47.338;9.196;2023-10-09T04:02:27;11.60;52.10
41220;DHT22;26951;47.338;9.196;2023-10-09T04:05:11;11.60;51.10
41220;DHT22;26951;47.338;9.196;2023-10-09T04:07:55;11.60;51.20
41220;DHT22;26951;47.338;9.196;2023-10-09T04:10:42;11.50;50.90
41220;DHT22;26951;47.338;9.196;2023-10-09T04:13:35;11.60;51.30
41220;DHT22;26951;47.338;9.196;2023-10-09T04:16:19;11.50;51.20
41220;DHT22;26951;47.338;9.196;2023-10-09T04:19:18;11.50;51.30
41220;DHT22;26951;47.338;9.196;2023-10-09T04:22:06;11.50;51.40
41220;DHT22;26951;47.338;9.196;2023-10-09T04:25:09;11.50;51.20
41220;DHT22;26951;47.338;9.196;2023-10-09T04:28:09;11.50;51.00
41220;DHT22;26951;47.338;9.196;2023-10-09T04:30:55;11.40;50.80
41220;DHT22;26951;47.338;9.196;2023-10-09T04:33:40;11.40;51.40
41220;DHT22;26951;47.338;9.196;2023-10-09T04:36:26;11.40;51.50
41220;DHT22;26951;47.338;9.196;2023-10-09T04:39:19;11.40;51.80
41220;DHT22;26951;47.338;9.196;2023-10-09T04:42:16;11.40;51.40
41220;DHT22;26951;47.338;9.196;2023-10-09T04:45:09;11.40;51.40
41220;DHT22;26951;47.338;9.196;2023-10-09T04:47:53;11.30;51.50
41220;DHT22;26951;47.338;9.196;2023-10-09T04:50:42;11.30;51.40
41220;DHT22;26951;47.338;9.196;2023-10-09T04:53:51;11.30;51.20
41220;DHT22;26951;47.338;9.196;2023-10-09T04:56:54;11.30;51.30
41220;DHT22;26951;47.338;9.196;2023-10-09T04:59:38;11.30;50.80
41220;DHT22;26951;47.338;9.196;2023-10-09T05:02:30;11.30;51.40
41220;DHT22;26951;47.338;9.196;2023-10-09T05:05:24;11.20;51.20
41220;DHT22;26951;47.338;9.196;2023-10-09T05:08:27;11.20;51.50
41220;DHT22;26951;47.338;9.196;2023-10-09T05:11:11;11.20;51.80
41220;DHT22;26951;47.338;9.196;2023-10-09T05:14:14;11.20;51.70
41220;DHT22;26951;47.338;9.196;2023-10-09T05:16:58;11.20;51.70
41220;DHT22;26951;47.338;9.196;2023-10-09T05:19:48;11.20;51.90
41220;DHT22;26951;47.338;9.196;2023-10-09T05:22:55;11.10;51.70
41220;DHT22;26951;47.338;9.196;2023-10-09T05:25:44;11.10;51.60
41220;DHT22;26951;47.338;9.196;2023-10-09T05:28:37;11.20;51.90
41220;DHT22;26951;47.338;9.196;2023-10-09T05:31:36;11.20;52.20
41220;DHT22;26951;47.338;9.196;2023-10-09T05:34:45;11.20;52.40
41220;DHT22;26951;47.338;9.196;2023-10-09T05:37:45;11.10;51.80
41220;DHT22;26951;47.338;9.196;2023-10-09T05:40:30;11.10;52.00
41220;DHT22;26951;47.338;9.196;2023-10-09T05:43:20;11.20;52.30
41220;DHT22;26951;47.338;9.196;2023-10-09T05:46:23;11.20;52.70
41220;DHT22;26951;47.338;9.196;2023-10-09T05:49:19;11.20;52.90
41220;DHT22;26951;47.338;9.196;2023-10-09T05:52:08;11.20;52.70
41220;DHT22;26951;47.338;9.196;2023-10-09T05:55:12;11.20;52.90
41220;DHT22;26951;47.338;9.196;2023-10-09T05:58:09;11.20;52.90
41220;DHT22;26951;47.338;9.196;2023-10-09T06:00:53;11.10;53.20
41220;DHT22;26951;47.338;9.196;2023-10-09T06:04:06;11.10;53.20
41220;DHT22;26951;47.338;9.196;2023-10-09T06:07:00;11.10;53.20
41220;DHT22;26951;47.338;9.196;2023-10-09T06:09:55;11.10;53.80
41220;DHT22;26951;47.338;9.196;2023-10-09T06:12:40;11.10;54.00
41220;DHT22;26951;47.338;9.196;2023-10-09T06:15:27;11.10;54.30
41220;DHT22;26951;47.338;9.196;2023-10-09T06:18:29;11.10;54.30
41220;DHT22;26951;47.338;9.196;2023-10-09T06:21:17;11.10;55.10
41220;DHT22;26951;47.338;9.196;2023-10-09T06:24:22;11.20;56.20
41220;DHT22;26951;47.338;9.196;2023-10-09T06:27:25;11.20;56.90
41220;DHT22;26951;47.338;9.196;2023-10-09T06:30:15;11.30;58.10
41220;DHT22;26951;47.338;9.196;2023-10-09T06:33:08;11.40;58.70
41220;DHT22;26951;47.338;9.196;2023-10-09T06:36:13;11.50;58.90
41220;DHT22;26951;47.338;9.196;2023-10-09T06:39:01;11.50;59.40
41220;DHT22;26951;47.338;9.196;2023-10-09T06:42:26;11.60;59.70
41220;DHT22;26951;47.338;9.196;2023-10-09T06:45:17;11.70;59.70
41220;DHT22;26951;47.338;9.196;2023-10-09T06:48:01;11.80;59.70
41220;DHT22;26951;47.338;9.196;2023-10-09T06:51:14;12.00;60.50
41220;DHT22;26951;47.338;9.196;2023-10-09T06:54:10;12.20;62.20
41220;DHT22;26951;47.338;9.196;2023-10-09T06:56:59;12.50;64.40
41220;DHT22;26951;47.338;9.196;2023-10-09T07:00:02;12.80;65.90
41220;DHT22;26951;47.338;9.196;2023-10-09T07:03:06;13.10;67.80
41220;DHT22;26951;47.338;9.196;2023-10-09T07:06:05;13.50;66.70
41220;DHT22;26951;47.338;9.196;2023-10-09T07:08:54;13.90;65.40
41220;DHT22;26951;47.338;9.196;2023-10-09T07:11:52;14.10;62.60
41220;DHT22;26951;47.338;9.196;2023-10-09T07:14:36;14.30;60.10
41220;DHT22;26951;47.338;9.196;2023-10-09T07:17:20;14.50;58.70
41220;DHT22;26951;47.338;9.196;2023-10-09T07:20:11;14.70;59.20
41220;DHT22;26951;47.338;9.196;2023-10-09T07:22:59;14.80;59.40
41220;DHT22;26951;47.338;9.196;2023-10-09T07:26:04;15.00;59.60
41220;DHT22;26951;47.338;9.196;2023-10-09T07:29:07;15.20;60.10
41220;DHT22;26951;47.338;9.196;2023-10-09T07:32:00;15.40;59.00
41220;DHT22;26951;47.338;9.196;2023-10-09T07:34:56;15.50;58.40
41220;DHT22;26951;47.338;9.196;2023-10-09T07:37:43;15.60;57.60
41220;DHT22;26951;47.338;9.196;2023-10-09T07:40:28;15.70;56.80
41220;DHT22;26951;47.338;9.196;2023-10-09T07:43:15;15.80;57.70
41220;DHT22;26951;47.338;9.196;2023-10-09T07:46:02;15.90;58.60
41220;DHT22;26951;47.338;9.196;2023-10-09T07:48:46;16.00;57.10
41220;DHT22;26951;47.338;9.196;2023-10-09T07:51:37;16.10;58.90
41220;DHT22;26951;47.338;9.196;2023-10-09T07:54:21;16.20;59.10
41220;DHT22;26951;47.338;9.196;2023-10-09T07:57:17;16.30;59.10
41220;DHT22;26951;47.338;9.196;2023-10-09T08:00:01;16.30;58.00
41220;DHT22;26951;47.338;9.196;2023-10-09T08:02:56;16.40;58.20
41220;DHT22;26951;47.338;9.196;2023-10-09T08:05:44;16.50;57.70
41220;DHT22;26951;47.338;9.196;2023-10-09T08:08:29;16.60;57.20
41220;DHT22;26951;47.338;9.196;2023-10-09T08:11:13;16.60;56.50
41220;DHT22;26951;47.338;9.196;2023-10-09T08:14:16;16.70;56.00
41220;DHT22;26951;47.338;9.196;2023-10-09T08:17:26;16.70;57.60
41220;DHT22;26951;47.338;9.196;2023-10-09T08:20:13;16.80;57.20
41220;DHT22;26951;47.338;9.196;2023-10-09T08:23:01;16.90;56.60
41220;DHT22;26951;47.338;9.196;2023-10-09T08:25:49;17.00;58.00
41220;DHT22;26951;47.338;9.196;2023-10-09T08:28:56;17.20;59.20
41220;DHT22;26951;47.338;9.196;2023-10-09T08:32:07;17.40;61.20
41220;DHT22;26951;47.338;9.196;2023-10-09T08:35:02;17.70;66.80
41220;DHT22;26951;47.338;9.196;2023-10-09T08:37:50;18.10;66.40
41220;DHT22;26951;47.338;9.196;2023-10-09T08:40:36;18.60;65.00
41220;DHT22;26951;47.338;9.196;2023-10-09T08:43:24;19.00;60.50
41220;DHT22;26951;47.338;9.196;2023-10-09T08:46:08;19.50;63.30
41220;DHT22;26951;47.338;9.196;2023-10-09T08:48:56;19.90;51.00
41220;DHT22;26951;47.338;9.196;2023-10-09T08:51:40;20.40;54.60
41220;DHT22;26951;47.338;9.196;2023-10-09T08:54:26;20.80;38.50
41220;DHT22;26951;47.338;9.196;2023-10-09T08:57:15;21.20;40.20
41220;DHT22;26951;47.338;9.196;2023-10-09T09:00:03;21.60;41.40
41220;DHT22;26951;47.338;9.196;2023-10-09T09:02:53;22.00;38.40
41220;DHT22;26951;47.338;9.196;2023-10-09T09:05:38;22.40;36.10
41220;DHT22;26951;47.338;9.196;2023-10-09T09:08:26;22.80;34.40
41220;DHT22;26951;47.338;9.196;2023-10-09T09:11:15;23.10;35.20
41220;DHT22;26951;47.338;9.196;2023-10-09T09:14:03;23.30;32.60
41220;DHT22;26951;47.338;9.196;2023-10-09T09:16:56;23.50;32.40
41220;DHT22;26951;47.338;9.196;2023-10-09T09:19:41;23.80;32.30
41220;DHT22;26951;47.338;9.196;2023-10-09T09:22:27;23.90;29.00
41220;DHT22;26951;47.338;9.196;2023-10-09T09:25:11;24.00;30.00
41220;DHT22;26951;47.338;9.196;2023-10-09T09:27:56;24.20;30.50
41220;DHT22;26951;47.338;9.196;2023-10-09T09:30:41;24.40;29.90
41220;DHT22;26951;47.338;9.196;2023-10-09T09:33:26;24.60;29.30
41220;DHT22;26951;47.338;9.196;2023-10-09T09:36:10;24.70;28.10
41220;DHT22;26951;47.338;9.196;2023-10-09T09:38:58;24.90;25.90
41220;DHT22;26951;47.338;9.196;2023-10-09T09:41:46;25.00;24.30
41220;DHT22;26951;47.338;9.196;2023-10-09T09:44:31;25.10;27.20
41220;DHT22;26951;47.338;9.196;2023-10-09T09:47:17;25.20;25.50
41220;DHT22;26951;47.338;9.196;2023-10-09T09:50:11;25.10;24.10
41220;DHT22;26951;47.338;9.196;2023-10-09T09:53:06;25.30;24.30
41220;DHT22;26951;47.338;9.196;2023-10-09T09:55:53;25.40;23.00
41220;DHT22;26951;47.338;9.196;2023-10-09T09:58:44;25.50;25.40
41220;DHT22;26951;47.338;9.196;2023-10-09T10:01:32;25.60;25.30
41220;DHT22;26951;47.338;9.196;2023-10-09T10:04:20;25.80;24.30
41220;DHT22;26951;47.338;9.196;2023-10-09T10:07:06;26.00;24.40
41220;DHT22;26951;47.338;9.196;2023-10-09T10:09:55;26.20;22.80
41220;DHT22;26951;47.338;9.196;2023-10-09T10:16:09;26.30;24.50
41220;DHT22;26951;47.338;9.196;2023-10-09T10:19:04;26.40;25.00
41220;DHT22;26951;47.338;9.196;2023-10-09T10:22:24;26.60;22.40
41220;DHT22;26951;47.338;9.196;2023-10-09T10:28:26;26.70;20.60
41220;DHT22;26951;47.338;9.196;2023-10-09T10:31:51;26.70;21.00
41220;DHT22;26951;47.338;9.196;2023-10-09T10:35:02;26.70;21.30
41220;DHT22;26951;47.338;9.196;2023-10-09T10:37:50;26.60;21.20
41220;DHT22;26951;47.338;9.196;2023-10-09T10:40:35;26.70;20.50
41220;DHT22;26951;47.338;9.196;2023-10-09T10:43:22;26.70;19.10
41220;DHT22;26951;47.338;9.196;2023-10-09T10:46:27;26.70;21.70
41220;DHT22;26951;47.338;9.196;2023-10-09T10:49:16;26.80;22.00
41220;DHT22;26951;47.338;9.196;2023-10-09T10:52:00;26.90;21.20
41220;DHT22;26951;47.338;9.196;2023-10-09T10:55:12;26.70;20.60
41220;DHT22;26951;47.338;9.196;2023-10-09T10:58:22;26.60;19.20
41220;DHT22;26951;47.338;9.196;2023-10-09T11:01:09;26.60;20.80
41220;DHT22;26951;47.338;9.196;2023-10-09T11:03:57;26.60;20.40
41220;DHT22;26951;47.338;9.196;2023-10-09T11:06:43;26.50;21.70
41220;DHT22;26951;47.338;9.196;2023-10-09T11:09:28;26.30;21.50
41220;DHT22;26951;47.338;9.196;2023-10-09T11:12:19;26.20;22.60
41220;DHT22;26951;47.338;9.196;2023-10-09T11:15:10;26.10;20.80
41220;DHT22;26951;47.338;9.196;2023-10-09T11:18:08;25.90;20.90
41220;DHT22;26951;47.338;9.196;2023-10-09T11:20:52;25.90;21.80
41220;DHT22;26951;47.338;9.196;2023-10-09T11:24:03;25.90;20.60
41220;DHT22;26951;47.338;9.196;2023-10-09T11:27:06;25.90;18.90
41220;DHT22;26951;47.338;9.196;2023-10-09T11:29:51;25.90;19.60
41220;DHT22;26951;47.338;9.196;2023-10-09T11:32:36;25.80;20.60
41220;DHT22;26951;47.338;9.196;2023-10-09T11:35:22;25.70;19.70
41220;DHT22;26951;47.338;9.196;2023-10-09T11:38:12;25.70;19.50
41220;DHT22;26951;47.338;9.196;2023-10-09T11:41:14;25.50;19.40
41220;DHT22;26951;47.338;9.196;2023-10-09T11:44:08;25.30;21.30
41220;DHT22;26951;47.338;9.196;2023-10-09T11:47:18;25.30;19.30
41220;DHT22;26951;47.338;9.196;2023-10-09T11:50:02;25.30;21.10
41220;DHT22;26951;47.338;9.196;2023-10-09T11:52:57;25.30;22.10
41220;DHT22;26951;47.338;9.196;2023-10-09T11:56:01;25.30;21.00
41220;DHT22;26951;47.338;9.196;2023-10-09T11:58:49;25.40;23.00
41220;DHT22;26951;47.338;9.196;2023-10-09T12:01:37;25.50;22.80
41220;DHT22;26951;47.338;9.196;2023-10-09T12:04:27;25.50;22.50
41220;DHT22;26951;47.338;9.196;2023-10-09T12:07:14;25.70;21.80
41220;DHT22;26951;47.338;9.196;2023-10-09T12:09:58;25.70;18.50
41220;DHT22;26951;47.338;9.196;2023-10-09T12:12:42;25.80;19.90
41220;DHT22;26951;47.338;9.196;2023-10-09T12:15:31;25.70;20.90
41220;DHT22;26951;47.338;9.196;2023-10-09T12:18:21;25.70;21.20
41220;DHT22;26951;47.338;9.196;2023-10-09T12:21:08;25.60;22.30
41220;DHT22;26951;47.338;9.196;2023-10-09T12:23:52;25.60;24.40
41220;DHT22;26951;47.338;9.196;2023-10-09T12:26:41;25.60;22.10
41220;DHT22;26951;47.338;9.196;2023-10-09T12:29:26;25.60;23.50
41220;DHT22;26951;47.338;9.196;2023-10-09T12:32:17;25.70;23.10
41220;DHT22;26951;47.338;9.196;2023-10-09T12:35:05;25.60;21.90
41220;DHT22;26951;47.338;9.196;2023-10-09T12:38:01;25.60;20.90
41220;DHT22;26951;47.338;9.196;2023-10-09T12:40:45;25.70;20.50
41220;DHT22;26951;47.338;9.196;2023-10-09T12:43:36;25.80;21.30
41220;DHT22;26951;47.338;9.196;2023-10-09T12:46:22;25.90;21.30
41220;DHT22;26951;47.338;9.196;2023-10-09T12:49:16;25.90;21.30
41220;DHT22;26951;47.338;9.196;2023-10-09T12:52:00;25.80;21.00
41220;DHT22;26951;47.338;9.196;2023-10-09T12:54:45;25.80;21.30
41220;DHT22;26951;47.338;9.196;2023-10-09T12:57:30;25.60;20.40
41220;DHT22;26951;47.338;9.196;2023-10-09T13:00:14;25.60;20.70
41220;DHT22;26951;47.338;9.196;2023-10-09T13:03:10;25.50;21.70
41220;DHT22;26951;47.338;9.196;2023-10-09T13:06:00;25.50;22.40
41220;DHT22;26951;47.338;9.196;2023-10-09T13:08:47;25.40;22.20
41220;DHT22;26951;47.338;9.196;2023-10-09T13:11:31;25.40;23.90
41220;DHT22;26951;47.338;9.196;2023-10-09T13:14:16;25.40;23.10
41220;DHT22;26951;47.338;9.196;2023-10-09T13:17:01;25.40;25.00
41220;DHT22;26951;47.338;9.196;2023-10-09T13:19:53;25.30;23.30
41220;DHT22;26951;47.338;9.196;2023-10-09T13:22:39;25.20;23.30
41220;DHT22;26951;47.338;9.196;2023-10-09T13:25:25;25.20;23.70
41220;DHT22;26951;47.338;9.196;2023-10-09T13:28:16;25.10;24.10
41220;DHT22;26951;47.338;9.196;2023-10-09T13:31:04;25.00;25.20
41220;DHT22;26951;47.338;9.196;2023-10-09T13:33:49;25.00;25.70
41220;DHT22;26951;47.338;9.196;2023-10-09T13:36:33;25.00;29.00
41220;DHT22;26951;47.338;9.196;2023-10-09T13:39:18;25.00;29.90
41220;DHT22;26951;47.338;9.196;2023-10-09T13:42:09;25.00;31.20
41220;DHT22;26951;47.338;9.196;2023-10-09T13:44:54;25.00;32.40
41220;DHT22;26951;47.338;9.196;2023-10-09T13:47:39;25.00;32.80
41220;DHT22;26951;47.338;9.196;2023-10-09T13:50:24;25.00;32.50
41220;DHT22;26951;47.338;9.196;2023-10-09T13:53:12;24.90;34.00
41220;DHT22;26951;47.338;9.196;2023-10-09T13:55:59;24.80;34.00
41220;DHT22;26951;47.338;9.196;2023-10-09T13:58:48;24.70;35.00
41220;DHT22;26951;47.338;9.196;2023-10-09T14:01:33;24.60;35.80
41220;DHT22;26951;47.338;9.196;2023-10-09T14:04:17;24.50;36.40
41220;DHT22;26951;47.338;9.196;2023-10-09T14:07:04;24.40;36.70
41220;DHT22;26951;47.338;9.196;2023-10-09T14:09:49;24.30;37.20
41220;DHT22;26951;47.338;9.196;2023-10-09T14:12:39;24.20;37.50
41220;DHT22;26951;47.338;9.196;2023-10-09T14:15:26;24.00;37.30
41220;DHT22;26951;47.338;9.196;2023-10-09T14:18:10;23.90;38.00
41220;DHT22;26951;47.338;9.196;2023-10-09T14:20:55;23.80;37.50
41220;DHT22;26951;47.338;9.196;2023-10-09T14:23:40;23.70;37.50
41220;DHT22;26951;47.338;9.196;2023-10-09T14:26:29;23.60;37.70
41220;DHT22;26951;47.338;9.196;2023-10-09T14:29:13;23.40;38.30
41220;DHT22;26951;47.338;9.196;2023-10-09T14:32:00;23.30;37.60
41220;DHT22;26951;47.338;9.196;2023-10-09T14:34:44;23.20;37.40
41220;DHT22;26951;47.338;9.196;2023-10-09T14:37:35;23.00;37.10
41220;DHT22;26951;47.338;9.196;2023-10-09T14:40:19;22.90;38.80
41220;DHT22;26951;47.338;9.196;2023-10-09T14:43:14;22.70;38.00
41220;DHT22;26951;47.338;9.196;2023-10-09T14:46:04;22.60;37.30
41220;DHT22;26951;47.338;9.196;2023-10-09T14:48:55;22.50;38.50
41220;DHT22;26951;47.338;9.196;2023-10-09T14:51:39;22.30;39.50
41220;DHT22;26951;47.338;9.196;2023-10-09T14:54:23;22.20;39.10
41220;DHT22;26951;47.338;9.196;2023-10-09T14:57:07;22.10;38.70
41220;DHT22;26951;47.338;9.196;2023-10-09T14:59:52;21.90;38.40
41220;DHT22;26951;47.338;9.196;2023-10-09T15:02:37;21.80;39.00
41220;DHT22;26951;47.338;9.196;2023-10-09T15:05:23;21.70;41.20
41220;DHT22;26951;47.338;9.196;2023-10-09T15:08:07;21.60;40.70
41220;DHT22;26951;47.338;9.196;2023-10-09T15:10:55;21.50;41.50
41220;DHT22;26951;47.338;9.196;2023-10-09T15:13:43;21.40;41.80
41220;DHT22;26951;47.338;9.196;2023-10-09T15:16:27;21.30;41.50
41220;DHT22;26951;47.338;9.196;2023-10-09T15:19:14;21.20;42.70
41220;DHT22;26951;47.338;9.196;2023-10-09T15:21:59;21.10;41.30
41220;DHT22;26951;47.338;9.196;2023-10-09T15:24:43;21.10;42.40
41220;DHT22;26951;47.338;9.196;2023-10-09T15:27:27;21.00;42.90
41220;DHT22;26951;47.338;9.196;2023-10-09T15:30:12;21.00;44.00
41220;DHT22;26951;47.338;9.196;2023-10-09T15:33:00;20.90;44.20
41220;DHT22;26951;47.338;9.196;2023-10-09T15:35:45;20.90;44.10
41220;DHT22;26951;47.338;9.196;2023-10-09T15:38:33;20.80;44.80
41220;DHT22;26951;47.338;9.196;2023-10-09T15:41:18;20.80;44.60
41220;DHT22;26951;47.338;9.196;2023-10-09T15:44:05;20.70;44.70
41220;DHT22;26951;47.338;9.196;2023-10-09T15:46:50;20.60;45.40
41220;DHT22;26951;47.338;9.196;2023-10-09T15:49:35;20.50;44.70
41220;DHT22;26951;47.338;9.196;2023-10-09T15:52:25;20.50;44.20
41220;DHT22;26951;47.338;9.196;2023-10-09T15:55:10;20.40;44.90
41220;DHT22;26951;47.338;9.196;2023-10-09T15:57:57;20.30;44.60
41220;DHT22;26951;47.338;9.196;2023-10-09T16:00:44;20.30;44.90
41220;DHT22;26951;47.338;9.196;2023-10-09T16:03:28;20.10;44.30
41220;DHT22;26951;47.338;9.196;2023-10-09T16:06:12;20.00;43.20
41220;DHT22;26951;47.338;9.196;2023-10-09T16:08:56;19.90;41.30
41220;DHT22;26951;47.338;9.196;2023-10-09T16:11:41;19.90;42.10
41220;DHT22;26951;47.338;9.196;2023-10-09T16:14:25;19.80;42.50
41220;DHT22;26951;47.338;9.196;2023-10-09T16:17:10;19.70;41.20
41220;DHT22;26951;47.338;9.196;2023-10-09T16:19:56;19.60;40.50
41220;DHT22;26951;47.338;9.196;2023-10-09T16:22:40;19.50;40.10
41220;DHT22;26951;47.338;9.196;2023-10-09T16:25:25;19.30;39.80
41220;DHT22;26951;47.338;9.196;2023-10-09T16:28:10;19.20;39.70
41220;DHT22;26951;47.338;9.196;2023-10-09T16:30:54;19.10;41.00
41220;DHT22;26951;47.338;9.196;2023-10-09T16:33:40;19.10;40.40
41220;DHT22;26951;47.338;9.196;2023-10-09T16:36:25;19.10;40.00
41220;DHT22;26951;47.338;9.196;2023-10-09T16:39:11;19.00;41.80
41220;DHT22;26951;47.338;9.196;2023-10-09T16:42:02;19.00;43.10
41220;DHT22;26951;47.338;9.196;2023-10-09T16:44:48;18.90;42.00
41220;DHT22;26951;47.338;9.196;2023-10-09T16:47:32;18.80;43.70
41220;DHT22;26951;47.338;9.196;2023-10-09T16:50:16;18.80;44.20
41220;DHT22;26951;47.338;9.196;2023-10-09T16:53:00;18.70;44.30
41220;DHT22;26951;47.338;9.196;2023-10-09T16:55:44;18.60;44.70
41220;DHT22;26951;47.338;9.196;2023-10-09T16:58:28;18.50;44.00
41220;DHT22;26951;47.338;9.196;2023-10-09T17:01:13;18.40;43.20
41220;DHT22;26951;47.338;9.196;2023-10-09T17:03:58;18.30;44.00
41220;DHT22;26951;47.338;9.196;2023-10-09T17:06:42;18.20;44.20
41220;DHT22;26951;47.338;9.196;2023-10-09T17:09:28;18.20;44.70
41220;DHT22;26951;47.338;9.196;2023-10-09T17:12:12;18.00;43.10
41220;DHT22;26951;47.338;9.196;2023-10-09T17:14:57;17.80;42.60
41220;DHT22;26951;47.338;9.196;2023-10-09T17:17:44;17.80;41.80
41220;DHT22;26951;47.338;9.196;2023-10-09T17:20:30;17.70;42.10
41220;DHT22;26951;47.338;9.196;2023-10-09T17:23:15;17.60;42.00
41220;DHT22;26951;47.338;9.196;2023-10-09T17:26:03;17.60;41.10
41220;DHT22;26951;47.338;9.196;2023-10-09T17:28:47;17.40;41.10
41220;DHT22;26951;47.338;9.196;2023-10-09T17:31:31;17.30;40.90
41220;DHT22;26951;47.338;9.196;2023-10-09T17:34:18;17.20;41.20
41220;DHT22;26951;47.338;9.196;2023-10-09T17:37:02;17.10;41.10
41220;DHT22;26951;47.338;9.196;2023-10-09T17:39:48;17.10;40.90
41220;DHT22;26951;47.338;9.196;2023-10-09T17:42:36;17.00;40.80
41220;DHT22;26951;47.338;9.196;2023-10-09T17:45:21;16.90;40.40
41220;DHT22;26951;47.338;9.196;2023-10-09T17:48:07;16.80;40.30
41220;DHT22;26951;47.338;9.196;2023-10-09T17:50:52;16.80;40.70
41220;DHT22;26951;47.338;9.196;2023-10-09T17:53:39;16.70;40.10
41220;DHT22;26951;47.338;9.196;2023-10-09T17:56:23;16.70;39.70
41220;DHT22;26951;47.338;9.196;2023-10-09T17:59:10;16.70;39.70